Time;durP1;ratioP1;P1;durP2;ratioP2;P2;SDS_P1;SDS_P2;PMS_P1;PMS_P2;Temp;Humidity;BMP_temperature;BMP_pressure;BME280_temperature;BME280_humidity;BME280_pressure;Samples;Min_cycle;Max_cycle;Signal;HPM_P1;HPM_P2
2022/04/09 00:01:09;;;;;;;6.95;1.60;;;5.80;99.90;;;;;;5060115;28;20060;-82
2022/04/09 00:03:35;;;;;;;6.97;1.52;;;6.50;99.90;;;;;;5060286;28;20276;-82
2022/04/09 00:06:03;;;;;;;5.35;1.48;;;4.60;99.90;;;;;;5058428;28;20268;-85
2022/04/09 00:08:29;;;;;;;10.85;1.95;;;5.30;99.90;;;;;;5060969;28;20017;-84
2022/04/09 00:10:55;;;;;;;7.70;1.60;;;4.60;99.90;;;;;;5036656;28;20084;-84
2022/04/09 00:13:21;;;;;;;8.68;1.80;;;4.60;99.90;;;;;;5075483;28;20081;-83
2022/04/09 00:15:50;;;;;;;7.18;1.60;;;5.50;99.90;;;;;;5060207;28;20020;-84
2022/04/09 00:18:16;;;;;;;7.82;1.60;;;5.00;99.90;;;;;;5060718;28;20096;-85
2022/04/09 00:20:42;;;;;;;6.50;1.67;;;;;;;;;;5060871;28;20087;-83
2022/04/09 00:23:10;;;;;;;7.18;2.00;;;4.50;99.90;;;;;;5061762;28;20017;-84
2022/04/09 00:25:43;;;;;;;6.95;1.83;;;5.90;99.90;;;;;;5038882;28;20033;-83
2022/04/09 00:28:09;;;;;;;6.20;1.70;;;4.50;99.90;;;;;;5053593;28;20260;-83
2022/04/09 00:30:35;;;;;;;8.70;1.65;;;4.50;99.90;;;;;;5052797;28;20097;-83
2022/04/09 00:33:03;;;;;;;8.35;1.98;;;4.80;99.90;;;;;;5061836;28;20017;-84
2022/04/09 00:35:29;;;;;;;10.38;2.10;;;4.50;99.90;;;;;;5039932;28;20268;-84
2022/04/09 00:37:54;;;;;;;8.07;1.85;;;4.80;99.90;;;;;;5053076;28;20031;-84
2022/04/09 00:40:24;;;;;;;8.18;1.95;;;5.30;99.90;;;;;;5034648;28;20172;-84
2022/04/09 00:42:50;;;;;;;8.35;2.28;;;4.70;99.90;;;;;;5060133;28;20024;-84
2022/04/09 00:45:16;;;;;;;10.32;2.03;;;6.10;99.90;;;;;;5058885;28;20029;-84
2022/04/09 00:47:42;;;;;;;10.48;2.17;;;4.70;99.90;;;;;;5035363;28;20018;-84
2022/04/09 00:50:10;;;;;;;8.50;1.88;;;6.30;99.90;;;;;;5059897;28;20063;-82
2022/04/09 00:52:42;;;;;;;9.15;2.00;;;4.70;99.90;;;;;;5058065;28;20077;-84
2022/04/09 00:55:09;;;;;;;10.40;2.00;;;5.60;99.90;;;;;;5059812;28;20041;-83
2022/04/09 00:57:43;;;;;;;11.27;2.00;;;4.70;99.90;;;;;;5060914;28;20100;-84
2022/04/09 01:00:09;;;;;;;7.95;1.88;;;4.60;99.90;;;;;;5037389;28;20021;-83
2022/04/09 01:02:45;;;;;;;13.23;2.00;;;4.60;99.90;;;;;;5059480;28;20041;-83
2022/04/09 01:05:12;;;;;;;10.65;2.20;;;5.10;99.90;;;;;;5060314;28;20056;-82
2022/04/09 01:07:38;;;;;;;9.45;2.03;;;4.90;99.90;;;;;;5060674;28;20311;-83
2022/04/09 01:10:05;;;;;;;9.70;1.95;;;5.20;99.90;;;;;;5042511;28;20033;-85
2022/04/09 01:12:37;;;;;;;9.85;1.95;;;4.50;99.90;;;;;;5056041;28;20055;-83
2022/04/09 01:15:06;;;;;;;8.60;2.05;;;4.60;99.90;;;;;;5055930;28;20022;-84
2022/04/09 01:17:31;;;;;;;10.27;1.92;;;4.60;99.90;;;;;;5058201;28;20259;-84
2022/04/09 01:19:58;;;;;;;9.00;1.85;;;;;;;;;;5040069;28;20040;-84
2022/04/09 01:22:23;;;;;;;8.10;1.88;;;4.70;99.90;;;;;;5041289;28;20136;-83
2022/04/09 01:24:49;;;;;;;8.82;2.03;;;4.70;99.90;;;;;;5061685;28;20096;-83
2022/04/09 01:27:15;;;;;;;7.80;2.05;;;4.60;99.90;;;;;;5062201;28;20295;-84
2022/04/09 01:29:43;;;;;;;12.15;2.00;;;4.50;99.90;;;;;;5044872;28;20148;-84
2022/04/09 01:32:10;;;;;;;8.57;1.90;;;4.40;99.90;;;;;;5061532;28;20031;-84
2022/04/09 01:34:37;;;;;;;7.78;1.63;;;4.40;99.90;;;;;;5043487;28;20056;-83
2022/04/09 01:37:03;;;;;;;11.88;2.15;;;4.40;99.90;;;;;;5055622;28;20032;-83
2022/04/09 01:39:28;;;;;;;10.68;2.35;;;3.40;99.90;;;;;;5039178;28;20062;-83
2022/04/09 01:41:54;;;;;;;7.90;1.80;;;4.30;99.90;;;;;;5063009;28;20089;-83
2022/04/09 01:44:20;;;;;;;9.23;2.20;;;4.30;99.90;;;;;;5028550;28;20113;-84
2022/04/09 01:46:46;;;;;;;8.88;1.85;;;4.20;99.90;;;;;;5029847;28;20096;-83
2022/04/09 01:49:13;;;;;;;12.95;2.00;;;5.70;99.90;;;;;;5060496;28;20021;-84
2022/04/09 01:51:42;;;;;;;7.38;1.95;;;4.50;99.90;;;;;;5057556;28;20024;-85
2022/04/09 01:54:07;;;;;;;14.90;2.42;;;4.10;99.90;;;;;;5045084;28;20255;-82
2022/04/09 01:56:33;;;;;;;9.75;2.47;;;4.10;99.90;;;;;;5044534;28;20044;-82
2022/04/09 01:58:59;;;;;;;8.82;2.03;;;5.30;99.90;;;;;;5060887;28;20036;-82
2022/04/09 02:01:25;;;;;;;8.07;1.98;;;4.80;99.90;;;;;;5045508;28;20049;-83
2022/04/09 02:03:50;;;;;;;11.57;2.15;;;4.20;99.90;;;;;;5030002;28;20095;-84
2022/04/09 02:06:19;;;;;;;8.68;1.88;;;4.30;99.90;;;;;;5057271;28;20228;-83
2022/04/09 02:08:45;;;;;;;10.93;1.90;;;4.30;99.90;;;;;;5063333;28;20064;-83
2022/04/09 02:11:11;;;;;;;8.02;2.00;;;4.30;99.90;;;;;;5060324;28;20136;-84
2022/04/09 02:13:36;;;;;;;10.45;2.17;;;4.30;99.90;;;;;;5028552;28;20041;-83
2022/04/09 02:16:02;;;;;;;8.63;1.90;;;;;;;;;;5051211;28;20114;-83
2022/04/09 02:18:28;;;;;;;9.88;1.95;;;4.20;99.90;;;;;;5063039;28;20100;-82
2022/04/09 02:20:55;;;;;;;10.38;1.90;;;5.50;99.90;;;;;;5042588;28;20120;-83
2022/04/09 02:23:20;;;;;;;10.55;1.70;;;4.10;99.90;;;;;;5062459;28;20028;-84
2022/04/09 02:25:46;;;;;;;10.25;2.22;;;4.00;99.90;;;;;;5061572;28;20075;-83
2022/04/09 02:28:12;;;;;;;14.35;1.90;;;4.00;99.90;;;;;;5045883;28;20044;-83
2022/04/09 02:30:38;;;;;;;12.82;2.83;;;4.00;99.90;;;;;;5056364;28;20024;-83
2022/04/09 02:33:04;;;;;;;9.52;2.38;;;4.50;99.90;;;;;;5062912;28;20092;-83
2022/04/09 02:35:30;;;;;;;11.07;2.00;;;3.90;99.90;;;;;;5059156;28;20048;-83
2022/04/09 02:37:57;;;;;;;10.00;2.28;;;4.00;99.90;;;;;;5044955;28;20096;-84
2022/04/09 02:40:23;;;;;;;10.65;2.22;;;5.40;99.90;;;;;;5062133;28;20021;-82
2022/04/09 02:42:49;;;;;;;10.00;2.03;;;4.00;99.90;;;;;;5061544;28;20260;-83
2022/04/09 02:45:14;;;;;;;12.30;2.50;;;4.10;99.90;;;;;;5063087;28;20138;-83
2022/04/09 02:47:40;;;;;;;6.95;1.65;;;5.70;99.90;;;;;;5028707;28;20034;-83
2022/04/09 02:50:07;;;;;;;8.30;2.58;;;4.20;99.90;;;;;;5050917;28;20099;-84
2022/04/09 02:52:37;;;;;;;8.30;2.03;;;4.20;99.90;;;;;;5044470;28;20037;-82
2022/04/09 02:55:05;;;;;;;10.85;2.13;;;4.20;99.90;;;;;;5040498;28;20067;-82
2022/04/09 02:57:31;;;;;;;9.20;2.15;;;4.10;99.90;;;;;;5059794;28;20159;-83
2022/04/09 02:59:57;;;;;;;11.15;2.47;;;4.60;99.90;;;;;;5039966;28;20012;-84
2022/04/09 03:02:24;;;;;;;8.27;1.80;;;;;;;;;;5039679;28;20084;-83
2022/04/09 03:04:53;;;;;;;9.52;2.08;;;4.10;99.90;;;;;;5054185;28;20083;-83
2022/04/09 03:07:21;;;;;;;8.95;1.88;;;;;;;;;;5049836;28;20032;-82
2022/04/09 03:09:48;;;;;;;9.70;1.83;;;4.00;99.90;;;;;;5059819;28;20071;-81
2022/04/09 03:12:13;;;;;;;9.60;1.80;;;5.20;99.90;;;;;;5051471;28;20071;-84
2022/04/09 03:14:39;;;;;;;7.82;1.90;;;4.10;99.90;;;;;;5021842;28;20041;-82
2022/04/09 03:17:05;;;;;;;8.50;2.15;;;4.00;99.90;;;;;;5054586;28;20036;-83
2022/04/09 03:19:31;;;;;;;7.60;1.90;;;3.90;99.90;;;;;;5041096;28;20025;-84
2022/04/09 03:21:56;;;;;;;9.10;1.50;;;3.80;99.90;;;;;;5061444;28;20160;-81
2022/04/09 03:24:22;;;;;;;11.25;2.30;;;4.00;99.90;;;;;;5071258;28;20123;-83
2022/04/09 03:26:50;;;;;;;9.73;1.85;;;4.70;99.90;;;;;;5061805;28;20021;-83
2022/04/09 03:29:16;;;;;;;8.90;2.00;;;3.90;99.90;;;;;;5060627;28;20028;-83
2022/04/09 03:31:42;;;;;;;10.55;2.17;;;5.70;99.90;;;;;;5056715;28;20036;-83
2022/04/09 03:34:07;;;;;;;10.60;2.00;;;3.80;99.90;;;;;;5044653;28;20035;-83
2022/04/09 03:36:33;;;;;;;9.88;2.30;;;3.90;99.90;;;;;;5040486;28;20056;-82
2022/04/09 03:38:59;;;;;;;7.63;2.13;;;3.90;99.90;;;;;;5044189;28;20025;-83
2022/04/09 03:41:27;;;;;;;12.32;2.72;;;4.30;99.90;;;;;;5060673;28;20136;-83
2022/04/09 03:43:53;;;;;;;9.38;2.10;;;3.90;99.90;;;;;;5024226;28;20036;-83
2022/04/09 03:46:19;;;;;;;8.70;1.80;;;4.60;99.90;;;;;;5030699;28;20256;-83
2022/04/09 03:48:45;;;;;;;8.55;2.67;;;3.90;99.90;;;;;;5073044;28;20251;-82
2022/04/09 03:51:12;;;;;;;10.93;1.90;;;5.70;99.90;;;;;;5058861;28;20304;-84
2022/04/09 03:53:38;;;;;;;8.13;1.73;;;3.60;99.90;;;;;;5058006;28;20127;-83
2022/04/09 03:56:05;;;;;;;7.97;1.80;;;3.90;99.90;;;;;;5045287;28;20025;-83
2022/04/09 03:58:31;;;;;;;8.85;1.80;;;3.90;99.90;;;;;;5015020;28;20095;-82
2022/04/09 04:00:57;;;;;;;8.65;1.90;;;3.90;99.90;;;;;;5047244;28;20275;-81
2022/04/09 04:03:25;;;;;;;9.35;2.10;;;5.50;99.90;;;;;;5053407;28;20096;-82
2022/04/09 04:05:51;;;;;;;8.88;1.90;;;5.30;99.90;;;;;;5042341;28;20024;-84
2022/04/09 04:08:17;;;;;;;11.95;2.13;;;3.70;99.90;;;;;;5050384;28;20107;-83
2022/04/09 04:10:43;;;;;;;11.02;2.50;;;3.80;99.90;;;;;;5043257;28;20263;-83
2022/04/09 04:13:09;;;;;;;11.85;2.55;;;3.80;99.90;;;;;;5056098;28;20036;-83
2022/04/09 04:15:34;;;;;;;12.57;2.22;;;5.50;99.90;;;;;;5044201;28;20032;-83
2022/04/09 04:18:01;;;;;;;10.15;2.30;;;3.80;99.90;;;;;;5060470;28;20024;-83
2022/04/09 04:20:27;;;;;;;10.38;2.70;;;5.80;99.90;;;;;;5076845;28;20025;-83
2022/04/09 04:22:53;;;;;;;13.68;2.75;;;3.90;99.90;;;;;;5060719;28;20182;-83
2022/04/09 04:25:19;;;;;;;8.98;2.03;;;4.40;99.90;;;;;;5039115;28;20028;-84
2022/04/09 04:27:48;;;;;;;13.45;3.30;;;4.00;99.90;;;;;;5060086;28;20048;-83
2022/04/09 04:30:15;;;;;;;11.70;2.33;;;5.00;99.90;;;;;;5054349;28;20037;-83
2022/04/09 04:32:42;;;;;;;10.73;1.90;;;4.00;99.90;;;;;;5059504;28;20267;-82
2022/04/09 04:35:09;;;;;;;9.60;2.25;;;4.20;99.90;;;;;;5055686;28;20024;-83
2022/04/09 04:37:42;;;;;;;9.30;2.03;;;3.90;99.90;;;;;;5048021;28;20033;-82
2022/04/09 04:40:09;;;;;;;13.35;1.90;;;3.90;99.90;;;;;;5056393;28;20090;-83
2022/04/09 04:42:35;;;;;;;10.52;2.17;;;3.90;99.90;;;;;;5057724;28;20032;-83
2022/04/09 04:45:01;;;;;;;11.88;2.45;;;;;;;;;;5058809;28;20021;-83
2022/04/09 04:47:27;;;;;;;11.07;2.58;;;3.80;99.90;;;;;;5045604;28;20067;-83
2022/04/09 04:49:53;;;;;;;15.70;2.40;;;3.80;99.90;;;;;;5055825;28;20081;-83
2022/04/09 04:52:19;;;;;;;19.50;2.88;;;3.80;99.90;;;;;;5041677;28;20284;-83
2022/04/09 04:54:45;;;;;;;12.05;2.00;;;4.80;99.90;;;;;;5037124;28;20021;-83
2022/04/09 04:57:10;;;;;;;11.07;2.28;;;3.70;99.90;;;;;;5054462;28;20048;-83
2022/04/09 04:59:36;;;;;;;9.50;2.47;;;3.70;99.90;;;;;;5061300;28;20119;-83
2022/04/09 05:02:03;;;;;;;10.00;2.13;;;4.40;99.90;;;;;;5057252;28;20108;-83
2022/04/09 05:04:29;;;;;;;13.05;2.05;;;3.70;99.90;;;;;;5057574;28;20267;-83
2022/04/09 05:06:56;;;;;;;11.63;2.03;;;3.70;99.90;;;;;;5063493;28;20284;-82
2022/04/09 05:09:21;;;;;;;11.15;2.17;;;3.80;99.90;;;;;;5039500;28;20105;-84
2022/04/09 05:11:47;;;;;;;9.02;2.10;;;3.70;99.90;;;;;;5043974;28;20040;-83
2022/04/09 05:14:13;;;;;;;11.13;2.25;;;3.70;99.90;;;;;;5063249;28;20088;-83
2022/04/09 05:16:39;;;;;;;9.25;2.70;;;3.70;99.90;;;;;;5029742;28;20041;-83
2022/04/09 05:19:05;;;;;;;9.70;2.00;;;3.70;99.90;;;;;;5050980;28;20064;-84
2022/04/09 05:21:31;;;;;;;11.95;2.33;;;3.70;99.90;;;;;;5065176;28;20024;-83
2022/04/09 05:23:57;;;;;;;7.47;1.80;;;4.60;99.90;;;;;;5064341;28;20036;-84
2022/04/09 05:26:23;;;;;;;10.98;2.20;;;2.30;99.90;;;;;;5030974;28;20036;-83
2022/04/09 05:28:54;;;;;;;8.57;2.10;;;3.80;99.90;;;;;;5051617;28;20052;-83
2022/04/09 05:31:27;;;;;;;9.63;1.95;;;4.00;99.90;;;;;;5033908;28;20036;-83
2022/04/09 05:33:54;;;;;;;10.82;2.17;;;3.90;99.90;;;;;;5050330;28;20029;-83
2022/04/09 05:36:20;;;;;;;11.15;2.20;;;4.00;99.90;;;;;;5042215;28;20261;-83
2022/04/09 05:38:46;;;;;;;9.60;2.00;;;4.20;99.90;;;;;;5048641;28;20079;-84
2022/04/09 05:41:12;;;;;;;11.07;2.10;;;2.90;99.90;;;;;;5041205;28;20028;-83
2022/04/09 05:43:39;;;;;;;13.07;2.30;;;3.80;99.90;;;;;;5063526;28;20028;-85
2022/04/09 05:46:05;;;;;;;8.75;1.90;;;5.50;99.90;;;;;;5062006;28;20028;-84
2022/04/09 05:48:31;;;;;;;12.13;2.70;;;4.80;99.90;;;;;;5046897;28;20175;-82
2022/04/09 05:50:57;;;;;;;11.32;2.47;;;6.40;99.90;;;;;;5048976;28;20035;-83
2022/04/09 05:53:22;;;;;;;10.35;2.17;;;4.40;99.90;;;;;;5018516;28;20096;-82
2022/04/09 05:55:48;;;;;;;6.35;1.60;;;4.40;99.90;;;;;;5060612;28;20024;-82
2022/04/09 05:58:14;;;;;;;8.27;1.95;;;4.30;99.90;;;;;;5036344;28;20040;-83
2022/04/09 06:00:40;;;;;;;9.07;2.25;;;5.50;99.90;;;;;;5028837;28;20029;-83
2022/04/09 06:03:06;;;;;;;9.98;1.90;;;4.50;99.90;;;;;;5061925;28;20115;-82
2022/04/09 06:05:32;;;;;;;9.00;2.17;;;4.50;99.90;;;;;;5040275;28;20025;-83
2022/04/09 06:07:58;;;;;;;11.05;2.25;;;6.00;99.90;;;;;;5052232;28;20041;-82
2022/04/09 06:10:23;;;;;;;9.05;2.00;;;4.70;99.90;;;;;;5038347;28;20369;-83
2022/04/09 06:12:49;;;;;;;10.38;2.45;;;4.80;99.90;;;;;;5063519;28;20025;-82
2022/04/09 06:15:15;;;;;;;11.27;2.45;;;5.00;99.90;;;;;;5064432;28;20040;-82
2022/04/09 06:17:41;;;;;;;9.60;2.00;;;5.20;99.90;;;;;;5064317;28;20311;-82
2022/04/09 06:20:07;;;;;;;9.80;2.10;;;5.40;99.90;;;;;;5051647;28;20063;-81
2022/04/09 06:22:33;;;;;;;10.48;2.17;;;4.70;99.90;;;;;;5063594;28;20135;-82
2022/04/09 06:25:00;;;;;;;8.68;1.90;;;4.30;99.90;;;;;;5064263;28;20017;-83
2022/04/09 06:27:25;;;;;;;7.60;1.88;;;5.50;99.90;;;;;;5062147;28;20044;-82
2022/04/09 06:29:51;;;;;;;6.35;1.63;;;5.20;99.90;;;;;;5053412;28;20036;-82
2022/04/09 06:32:17;;;;;;;6.97;2.08;;;5.10;99.90;;;;;;5053312;28;20087;-83
2022/04/09 06:34:43;;;;;;;10.02;2.15;;;5.70;99.90;;;;;;5057838;28;20206;-81
2022/04/09 06:37:09;;;;;;;11.55;2.55;;;6.40;99.90;;;;;;5044154;28;20033;-81
2022/04/09 06:39:35;;;;;;;10.73;2.47;;;5.90;99.90;;;;;;5055853;28;20485;-81
2022/04/09 06:42:01;;;;;;;12.27;2.45;;;5.30;99.90;;;;;;5060260;28;20159;-81
2022/04/09 06:44:27;;;;;;;13.98;2.50;;;5.50;99.90;;;;;;5057971;28;20047;-82
2022/04/09 06:46:53;;;;;;;12.25;2.63;;;6.60;99.90;;;;;;5061729;28;20082;-81
2022/04/09 06:49:18;;;;;;;11.30;2.42;;;6.30;99.90;;;;;;5043234;28;20032;-80
2022/04/09 06:51:44;;;;;;;14.75;2.58;;;6.20;99.90;;;;;;5037011;28;20071;-80
2022/04/09 06:54:10;;;;;;;14.95;2.70;;;6.30;99.90;;;;;;5028146;28;20275;-80
2022/04/09 06:56:37;;;;;;;14.20;2.45;;;6.10;99.90;;;;;;5060426;28;20097;-82
2022/04/09 06:59:03;;;;;;;11.45;2.95;;;6.10;99.90;;;;;;5058765;28;20428;-79
2022/04/09 07:01:30;;;;;;;12.68;2.97;;;6.00;99.90;;;;;;5024709;28;20217;-81
2022/04/09 07:03:56;;;;;;;12.95;2.42;;;5.80;99.90;;;;;;5036521;28;20033;-82
2022/04/09 07:06:22;;;;;;;14.77;3.08;;;5.70;99.90;;;;;;5023549;28;20226;-82
2022/04/09 07:08:48;;;;;;;13.27;2.72;;;5.70;99.90;;;;;;5043309;28;20086;-81
2022/04/09 07:11:14;;;;;;;13.52;2.53;;;5.80;99.90;;;;;;5041899;28;20041;-81
2022/04/09 07:13:40;;;;;;;12.15;2.72;;;6.00;99.90;;;;;;5055611;28;20022;-80
2022/04/09 07:16:06;;;;;;;12.45;2.55;;;6.30;99.90;;;;;;5044001;28;20049;-79
2022/04/09 07:18:32;;;;;;;13.50;2.60;;;6.50;99.90;;;;;;5048517;28;20023;-81
2022/04/09 07:20:58;;;;;;;12.30;2.40;;;6.60;99.90;;;;;;5044244;28;20264;-80
2022/04/09 07:23:24;;;;;;;11.98;2.80;;;6.50;99.90;;;;;;5054074;28;20255;-79
2022/04/09 07:25:50;;;;;;;12.85;2.17;;;6.40;99.90;;;;;;5036510;28;20041;-81
2022/04/09 07:28:16;;;;;;;13.65;2.50;;;6.30;99.90;;;;;;5076791;28;20179;-81
2022/04/09 07:30:43;;;;;;;9.75;2.33;;;6.20;99.90;;;;;;5059964;28;20012;-81
2022/04/09 07:33:09;;;;;;;12.20;2.13;;;6.20;99.90;;;;;;5074774;28;20029;-79
2022/04/09 07:35:35;;;;;;;12.05;2.30;;;7.40;99.90;;;;;;5055121;28;20037;-80
2022/04/09 07:38:02;;;;;;;11.85;2.50;;;6.40;99.90;;;;;;5035287;28;20052;-80
2022/04/09 07:40:30;;;;;;;14.45;2.42;;;6.50;99.90;;;;;;5049821;28;20060;-80
2022/04/09 07:42:58;;;;;;;12.35;2.35;;;6.70;99.90;;;;;;5057777;28;20028;-80
2022/04/09 07:45:25;;;;;;;11.63;2.28;;;5.10;99.90;;;;;;5044069;28;20151;-81
2022/04/09 07:47:59;;;;;;;14.35;2.28;;;7.00;99.90;;;;;;5059358;28;20063;-79
2022/04/09 07:50:25;;;;;;;14.68;2.63;;;;;;;;;;5052994;28;20095;-79
2022/04/09 07:52:52;;;;;;;13.80;2.63;;;7.40;99.90;;;;;;5042700;28;20013;-80
2022/04/09 07:55:18;;;;;;;11.10;2.55;;;7.40;99.90;;;;;;5060705;28;20017;-80
2022/04/09 07:57:50;;;;;;;12.13;2.33;;;7.20;99.90;;;;;;5060613;28;20028;-81
2022/04/09 08:00:17;;;;;;;11.35;2.90;;;7.20;99.90;;;;;;5056655;28;20022;-81
2022/04/09 08:02:43;;;;;;;11.18;2.10;;;7.20;99.90;;;;;;5073122;28;20108;-80
2022/04/09 08:05:10;;;;;;;11.38;2.70;;;7.80;99.90;;;;;;5039446;28;20038;-79
2022/04/09 08:07:40;;;;;;;14.00;2.63;;;8.00;99.90;;;;;;5043158;28;20013;-79
2022/04/09 08:10:08;;;;;;;12.60;2.60;;;7.50;99.90;;;;;;5050452;28;20361;-79
2022/04/09 08:12:34;;;;;;;14.23;2.15;;;7.50;99.90;;;;;;5054489;28;20092;-79
2022/04/09 08:15:00;;;;;;;11.82;2.55;;;7.50;99.90;;;;;;5075031;28;20028;-81
2022/04/09 08:17:26;;;;;;;11.88;2.85;;;7.40;99.90;;;;;;5044257;28;20047;-81
2022/04/09 08:19:52;;;;;;;15.55;2.65;;;7.50;99.90;;;;;;5060238;28;20021;-80
2022/04/09 08:22:18;;;;;;;12.52;2.65;;;8.50;99.90;;;;;;5072002;28;20025;-81
2022/04/09 08:24:45;;;;;;;14.40;2.92;;;7.40;99.90;;;;;;5077601;28;20033;-80
2022/04/09 08:27:11;;;;;;;13.75;2.20;;;7.40;99.90;;;;;;5053846;28;20080;-80
2022/04/09 08:29:37;;;;;;;12.38;2.63;;;7.40;99.90;;;;;;5047850;28;20033;-80
2022/04/09 08:32:04;;;;;;;11.45;2.55;;;7.40;99.90;;;;;;5059412;28;20021;-80
2022/04/09 08:34:33;;;;;;;13.90;2.72;;;7.70;99.90;;;;;;5059753;28;20349;-82
2022/04/09 08:36:59;;;;;;;8.65;1.80;;;7.70;99.90;;;;;;5064511;28;20109;-81
2022/04/09 08:39:25;;;;;;;6.63;1.65;;;7.60;99.90;;;;;;5063811;28;20310;-82
2022/04/09 08:41:53;;;;;;;6.22;1.63;;;7.30;99.90;;;;;;5060016;28;20029;-83
2022/04/09 08:44:19;;;;;;;5.82;1.40;;;6.90;99.90;;;;;;5041406;28;20599;-81
2022/04/09 08:46:46;;;;;;;7.10;1.77;;;6.60;99.90;;;;;;5062163;28;20020;-82
2022/04/09 08:49:13;;;;;;;9.65;1.80;;;6.60;99.90;;;;;;5027865;28;20036;-82
2022/04/09 08:51:39;;;;;;;10.35;1.88;;;6.60;99.90;;;;;;5056137;28;20021;-82
2022/04/09 08:54:05;;;;;;;11.70;2.55;;;6.90;99.90;;;;;;5065565;28;20032;-82
2022/04/09 08:56:35;;;;;;;8.90;2.05;;;7.20;99.90;;;;;;5059202;28;20323;-81
2022/04/09 08:59:04;;;;;;;8.27;1.98;;;7.30;99.90;;;;;;5063854;28;20186;-81
2022/04/09 09:01:31;;;;;;;10.73;2.28;;;7.50;99.90;;;;;;5056848;28;20112;-81
2022/04/09 09:04:01;;;;;;;10.20;1.92;;;7.50;99.90;;;;;;5063550;28;20035;-80
2022/04/09 09:06:31;;;;;;;9.95;2.00;;;7.40;99.90;;;;;;5064729;28;20087;-79
2022/04/09 09:08:59;;;;;;;10.68;1.88;;;6.90;99.90;;;;;;5064663;28;20070;-83
2022/04/09 09:11:28;;;;;;;4.95;1.38;;;6.30;99.90;;;;;;5029652;28;20075;-81
2022/04/09 09:13:56;;;;;;;7.65;1.50;;;5.90;99.90;;;;;;5056068;28;20040;-82
2022/04/09 09:16:31;;;;;;;4.55;1.23;;;5.60;99.90;;;;;;5045743;28;20029;-81
2022/04/09 09:18:59;;;;;;;4.63;1.35;;;5.50;99.90;;;;;;5041804;28;20028;-81
2022/04/09 09:21:28;;;;;;;5.97;1.30;;;6.50;99.90;;;;;;5057045;28;20024;-82
2022/04/09 09:24:09;;;;;;;4.85;1.27;;;5.40;99.90;;;;;;5061461;28;20196;-82
2022/04/09 09:26:39;;;;;;;2.70;0.90;;;5.50;99.90;;;;;;5062541;28;20048;-82
2022/04/09 09:29:09;;;;;;;5.20;1.60;;;5.70;99.90;;;;;;5062745;28;20017;-83
2022/04/09 09:31:43;;;;;;;3.00;1.20;;;6.00;99.90;;;;;;5045041;28;20040;-81
2022/04/09 09:34:16;;;;;;;5.10;1.30;;;6.30;99.90;;;;;;5042790;28;20021;-80
2022/04/09 09:36:43;;;;;;;;;;;6.60;99.90;;;;;;5052793;28;20053;-82
2022/04/09 09:39:14;;;;;;;7.03;1.42;;;6.80;99.90;;;;;;5061120;28;19924;-81
2022/04/09 09:41:51;;;;;;;8.25;1.50;;;7.10;99.90;;;;;;5058912;28;20075;-82
2022/04/09 09:44:25;;;;;;;6.32;1.40;;;7.40;99.90;;;;;;5043556;28;20025;-81
2022/04/09 09:46:53;;;;;;;9.20;1.88;;;7.90;99.90;;;;;;5043355;28;20084;-84
2022/04/09 09:49:22;;;;;;;7.05;1.60;;;7.90;99.90;;;;;;5054272;28;20021;-81
2022/04/09 09:52:06;;;;;;;9.15;1.90;;;8.20;99.90;;;;;;5063873;28;20025;-86
2022/04/09 09:54:32;;;;;;;10.73;1.80;;;8.20;99.90;;;;;;5046782;28;20029;-82
2022/04/09 09:57:00;;;;;;;10.13;2.30;;;8.10;99.90;;;;;;5047412;28;20070;-82
2022/04/09 09:59:27;;;;;;;7.68;1.88;;;7.70;99.90;;;;;;5025594;28;20092;-81
2022/04/09 10:01:54;;;;;;;9.15;2.13;;;7.30;99.90;;;;;;5043271;28;20049;-82
2022/04/09 10:04:21;;;;;;;9.20;1.77;;;7.40;99.90;;;;;;5043606;28;20093;-81
2022/04/09 10:06:47;;;;;;;7.60;1.73;;;6.60;99.90;;;;;;5044674;28;20032;-81
2022/04/09 10:09:14;;;;;;;4.93;1.60;;;6.60;99.90;;;;;;5053338;28;20022;-82
2022/04/09 10:11:47;;;;;;;3.70;0.90;;;6.80;99.90;;;;;;5052530;28;20029;-83
2022/04/09 10:14:14;;;;;;;4.35;1.05;;;6.50;99.90;;;;;;5060082;28;20030;-81
2022/04/09 10:16:44;;;;;;;2.28;0.95;;;7.00;99.90;;;;;;5054826;28;20184;-81
2022/04/09 10:19:11;;;;;;;3.25;1.00;;;7.10;99.90;;;;;;5045149;28;20264;-82
2022/04/09 10:21:41;;;;;;;3.78;1.08;;;7.10;99.90;;;;;;5058415;28;20063;-83
2022/04/09 10:24:14;;;;;;;2.63;0.82;;;7.10;99.90;;;;;;5061441;28;20272;-82
2022/04/09 10:26:41;;;;;;;6.60;1.50;;;7.10;99.90;;;;;;5043974;28;20336;-83
2022/04/09 10:29:08;;;;;;;6.28;1.60;;;7.20;99.90;;;;;;5063587;28;20017;-82
2022/04/09 10:32:01;;;;;;;6.28;1.70;;;7.20;99.90;;;;;;5036433;28;20040;-83
2022/04/09 10:34:52;;;;;;;5.75;1.40;;;7.70;99.90;;;;;;5062280;28;20323;-80
2022/04/09 10:37:18;;;;;;;7.78;1.67;;;7.60;99.90;;;;;;5052328;28;20227;-81
2022/04/09 10:39:45;;;;;;;8.20;1.90;;;7.70;99.90;;;;;;5043449;28;20048;-81
2022/04/09 10:42:48;;;;;;;8.90;1.70;;;7.80;99.90;;;;;;5023638;28;20163;-81
2022/04/09 10:45:13;;;;;;;7.90;1.70;;;7.70;99.90;;;;;;5061433;28;20048;-80
2022/04/09 10:48:26;;;;;;;7.43;1.92;;;7.70;99.90;;;;;;5060830;28;20033;-81
2022/04/09 10:51:11;;;;;;;7.65;1.20;;;7.80;99.90;;;;;;5011037;28;20029;-82
2022/04/09 10:53:47;;;;;;;7.00;1.50;;;7.70;99.90;;;;;;5004019;28;20249;-82
2022/04/09 10:56:42;;;;;;;9.38;1.63;;;7.30;99.90;;;;;;5051833;28;20041;-83
2022/04/09 10:59:16;;;;;;;5.88;1.30;;;7.50;99.90;;;;;;5045352;28;20366;-81
2022/04/09 11:01:51;;;;;;;9.43;1.90;;;7.60;99.90;;;;;;5049045;28;20327;-81
2022/04/09 11:04:34;;;;;;;4.82;1.40;;;8.90;99.90;;;;;;5076624;28;20100;-81
2022/04/09 11:07:07;;;;;;;4.85;1.27;;;;;;;;;;5053812;28;20052;-82
2022/04/09 11:10:03;;;;;;;5.97;1.30;;;8.10;99.90;;;;;;5057045;28;20213;-82
2022/04/09 11:12:38;;;;;;;5.70;1.55;;;8.20;99.90;;;;;;5062761;28;20230;-82
2022/04/09 11:15:11;;;;;;;5.80;1.35;;;8.20;99.90;;;;;;5058853;28;20285;-82
2022/04/09 11:17:45;;;;;;;5.80;1.40;;;8.40;99.90;;;;;;5053205;28;20017;-82
2022/04/09 11:20:26;;;;;;;6.97;1.63;;;8.60;99.90;;;;;;5042168;28;20059;-82
2022/04/09 11:22:54;;;;;;;7.30;1.60;;;8.60;99.90;;;;;;5058560;28;20213;-81
2022/04/09 11:25:22;;;;;;;9.10;1.60;;;8.90;99.90;;;;;;5056665;28;20129;-82
2022/04/09 11:27:49;;;;;;;9.60;2.00;;;9.00;99.90;;;;;;5058241;28;20077;-81
2022/04/09 11:30:16;;;;;;;11.48;1.98;;;9.20;99.90;;;;;;5060552;28;20064;-81
2022/04/09 11:32:41;;;;;;;11.93;2.35;;;9.10;99.90;;;;;;5025887;28;20075;-82
2022/04/09 11:35:11;;;;;;;9.23;2.08;;;9.20;99.90;;;;;;5062793;28;20172;-81
2022/04/09 11:37:43;;;;;;;9.15;2.10;;;7.80;99.90;;;;;;5056582;28;20088;-82
2022/04/09 11:40:11;;;;;;;8.90;1.80;;;8.90;99.90;;;;;;5047041;28;20256;-82
2022/04/09 11:42:54;;;;;;;7.13;1.90;;;8.70;99.90;;;;;;5054406;28;20017;-83
2022/04/09 11:45:31;;;;;;;10.52;2.30;;;8.40;99.90;;;;;;5033632;28;20096;-82
2022/04/09 11:48:02;;;;;;;9.45;1.65;;;8.30;99.90;;;;;;5056944;28;20067;-82
2022/04/09 11:50:39;;;;;;;10.13;2.08;;;8.30;99.90;;;;;;5043261;28;20039;-81
2022/04/09 11:53:22;;;;;;;10.48;1.80;;;8.40;99.90;;;;;;5058410;28;20013;-83
2022/04/09 11:55:48;;;;;;;;;;;8.50;99.90;;;;;;5059281;28;20274;-81
2022/04/09 11:58:18;;;;;;;13.32;2.20;;;8.80;99.90;;;;;;5037620;28;19905;-80
2022/04/09 12:00:46;;;;;;;11.13;2.10;;;9.10;99.90;;;;;;5040027;28;20301;-82
2022/04/09 12:03:13;;;;;;;8.50;1.88;;;9.10;99.90;;;;;;5061037;28;20048;-81
2022/04/09 12:05:46;;;;;;;6.55;1.65;;;8.90;99.90;;;;;;5058572;28;20047;-81
2022/04/09 12:08:14;;;;;;;10.05;1.90;;;8.70;99.90;;;;;;5056223;28;20068;-81
2022/04/09 12:10:56;;;;;;;11.10;2.00;;;8.50;99.90;;;;;;5059235;28;20021;-83
2022/04/09 12:13:25;;;;;;;10.23;2.20;;;8.30;99.90;;;;;;5031940;28;20044;-81
2022/04/09 12:15:59;;;;;;;9.20;1.98;;;8.50;99.90;;;;;;5056811;28;20070;-82
2022/04/09 12:18:33;;;;;;;10.50;2.03;;;8.90;99.90;;;;;;5060605;28;20302;-81
2022/04/09 12:21:15;;;;;;;10.93;1.90;;;9.20;99.90;;;;;;5056204;28;20040;-83
2022/04/09 12:23:41;;;;;;;12.13;2.10;;;9.20;99.90;;;;;;5059650;28;20025;-82
2022/04/09 12:26:24;;;;;;;11.88;2.28;;;10.30;99.90;;;;;;5042480;28;20376;-80
2022/04/09 12:29:18;;;;;;;10.20;2.38;;;9.60;99.90;;;;;;5060351;28;20274;-80
2022/04/09 12:31:51;;;;;;;8.30;1.95;;;9.70;99.90;;;;;;5059998;28;20025;-81
2022/04/09 12:34:20;;;;;;;14.32;2.55;;;9.70;99.90;;;;;;5060961;28;20047;-81
2022/04/09 12:37:09;;;;;;;10.00;1.85;;;9.50;99.90;;;;;;5048352;28;20013;-81
2022/04/09 12:39:36;;;;;;;9.70;2.00;;;9.30;99.90;;;;;;5035738;28;20017;-82
2022/04/09 12:42:03;;;;;;;9.20;1.88;;;8.80;99.90;;;;;;5076351;28;20294;-82
2022/04/09 12:44:29;;;;;;;7.53;1.77;;;7.20;99.90;;;;;;5061999;28;20028;-82
2022/04/09 12:46:56;;;;;;;12.27;2.85;;;8.60;99.90;;;;;;5059539;28;20029;-82
2022/04/09 12:49:26;;;;;;;7.78;2.00;;;8.70;99.90;;;;;;5058128;28;20318;-80
2022/04/09 12:51:52;;;;;;;10.65;2.00;;;8.70;99.90;;;;;;5056871;28;20179;-83
2022/04/09 12:54:19;;;;;;;8.80;1.77;;;8.70;99.90;;;;;;5055946;28;20063;-82
2022/04/09 12:56:44;;;;;;;8.85;1.80;;;8.40;99.90;;;;;;5043338;28;20231;-82
2022/04/09 12:59:14;;;;;;;8.40;1.52;;;8.30;99.90;;;;;;5053038;28;20048;-82
2022/04/09 13:01:39;;;;;;;12.13;2.88;;;8.50;99.90;;;;;;5038969;28;20045;-82